PWSweather.com
Personal Weather Stations
Station Observations
KC4KQE
Superstition Mountains, Apache Junction, AZ 85119

Superstition MountainsApache Junction, AZ 85119

Lat: 33.41578, Lon: -111.49328

Elevation: 1850

Station Type: Davis Vantage Pro2 Plus

http://kc4kqe.org/

High Low Average
Temperature 99.0°F37.2°C 74.7°F23.7°C 86.2°F30.1°C
Dew Point 42.1°F5.6°C 25.9°F-3.4°C 33.6°F0.9°C
Winds 10.0 mph 16.1 kmh Calm Calm 3.0 mph SSW4.8 kmh SSW
Wind Gusts 20.0 mph32.2 kmh -- 7.0 mph11.3 kmh
Humidity 24% 8% 16%
Pressure 29.93 in1013.5 mb 29.82 in1009.8 mb -
Precipitation 0.00 in0.0 mm - -
Hour Temp Dew Point Humidity Winds Wind Gusts Pressure Precip Precip Rate Daily Precip Total
12:00 AM 76.5°F24.7°C 33.6°F0.9°C 21% Calm Calm -- 29.86 in1011.2 mb 0.00 in0.0 mm 0.00 in0.0 mm 0.00 in0.0 mm
12:05 AM 76.2°F24.6°C 33.3°F0.7°C 21% Calm Calm -- 29.86 in1011.2 mb 0.00 in0.0 mm 0.00 in0.0 mm 0.00 in0.0 mm
12:10 AM 76.0°F24.4°C 33.2°F0.7°C 21% Calm Calm -- 29.86 in1011.2 mb 0.00 in0.0 mm 0.00 in0.0 mm 0.00 in0.0 mm
12:15 AM 75.6°F24.2°C 32.9°F0.5°C 21% 1.0 mph E1.6 kmh E 2.0 mph3.2 kmh 29.85 in1010.8 mb 0.00 in0.0 mm 0.00 in0.0 mm 0.00 in0.0 mm
12:20 AM 75.4°F24.1°C 32.7°F0.4°C 21% 1.0 mph E1.6 kmh E 2.0 mph3.2 kmh 29.85 in1010.8 mb 0.00 in0.0 mm 0.00 in0.0 mm 0.00 in0.0 mm
12:25 AM 75.4°F24.1°C 33.8°F1.0°C 22% 2.0 mph E3.2 kmh E 3.0 mph4.8 kmh 29.86 in1011.2 mb 0.00 in0.0 mm 0.00 in0.0 mm 0.00 in0.0 mm
12:30 AM 75.5°F24.2°C 33.9°F1.1°C 22% Calm Calm 2.0 mph3.2 kmh 29.86 in1011.2 mb 0.00 in0.0 mm 0.00 in0.0 mm 0.00 in0.0 mm
12:35 AM 75.7°F24.3°C 34.1°F1.2°C 22% Calm Calm 3.0 mph4.8 kmh 29.86 in1011.2 mb 0.00 in0.0 mm 0.00 in0.0 mm 0.00 in0.0 mm
12:40 AM 75.9°F24.4°C 33.1°F0.6°C 21% 2.0 mph SE3.2 kmh SE 4.0 mph6.4 kmh 29.86 in1011.2 mb 0.00 in0.0 mm 0.00 in0.0 mm 0.00 in0.0 mm
12:45 AM 76.2°F24.6°C 33.3°F0.7°C 21% 2.0 mph SE3.2 kmh SE 5.0 mph8.0 kmh 29.86 in1011.2 mb 0.00 in0.0 mm 0.00 in0.0 mm 0.00 in0.0 mm
12:50 AM 76.4°F24.7°C 33.5°F0.8°C 21% 1.0 mph ESE1.6 kmh ESE 6.0 mph9.7 kmh 29.86 in1011.2 mb 0.00 in0.0 mm 0.00 in0.0 mm 0.00 in0.0 mm
12:55 AM 76.7°F24.8°C 33.8°F1.0°C 21% 4.0 mph ESE6.4 kmh ESE 5.0 mph8.0 kmh 29.86 in1011.2 mb 0.00 in0.0 mm 0.00 in0.0 mm 0.00 in0.0 mm
01:00 AM 77.2°F25.1°C 33.0°F0.6°C 20% 1.0 mph ESE1.6 kmh ESE 4.0 mph6.4 kmh 29.86 in1011.2 mb 0.00 in0.0 mm 0.00 in0.0 mm 0.00 in0.0 mm
01:05 AM 77.6°F25.3°C 33.3°F0.7°C 20% 1.0 mph ESE1.6 kmh ESE 3.0 mph4.8 kmh 29.86 in1011.2 mb 0.00 in0.0 mm 0.00 in0.0 mm 0.00 in0.0 mm
01:10 AM 77.8°F25.4°C 33.5°F0.8°C 20% Calm Calm 2.0 mph3.2 kmh 29.86 in1011.2 mb 0.00 in0.0 mm 0.00 in0.0 mm 0.00 in0.0 mm
01:15 AM 77.8°F25.4°C 33.5°F0.8°C 20% 2.0 mph ESE3.2 kmh ESE 3.0 mph4.8 kmh 29.86 in1011.2 mb 0.00 in0.0 mm 0.00 in0.0 mm 0.00 in0.0 mm
01:20 AM 78.2°F25.7°C 33.8°F1.0°C 20% 3.0 mph E4.8 kmh E 5.0 mph8.0 kmh 29.86 in1011.2 mb 0.00 in0.0 mm 0.00 in0.0 mm 0.00 in0.0 mm
01:25 AM 78.5°F25.8°C 34.0°F1.1°C 20% Calm Calm 2.0 mph3.2 kmh 29.86 in1011.2 mb 0.00 in0.0 mm 0.00 in0.0 mm 0.00 in0.0 mm
01:30 AM 78.6°F25.9°C 34.1°F1.2°C 20% Calm Calm -- 29.86 in1011.2 mb 0.00 in0.0 mm 0.00 in0.0 mm 0.00 in0.0 mm
01:35 AM 78.5°F25.8°C 34.0°F1.1°C 20% 1.0 mph SE1.6 kmh SE 3.0 mph4.8 kmh 29.86 in1011.2 mb 0.00 in0.0 mm 0.00 in0.0 mm 0.00 in0.0 mm
01:40 AM 78.3°F25.7°C 33.9°F1.1°C 20% 3.0 mph SE4.8 kmh SE 7.0 mph11.3 kmh 29.86 in1011.2 mb 0.00 in0.0 mm 0.00 in0.0 mm 0.00 in0.0 mm
01:45 AM 78.2°F25.7°C 33.8°F1.0°C 20% 2.0 mph SE3.2 kmh SE 4.0 mph6.4 kmh 29.86 in1011.2 mb 0.00 in0.0 mm 0.00 in0.0 mm 0.00 in0.0 mm
01:50 AM 78.0°F25.6°C 33.6°F0.9°C 20% 5.0 mph SE8.0 kmh SE 5.0 mph8.0 kmh 29.86 in1011.2 mb 0.00 in0.0 mm 0.00 in0.0 mm 0.00 in0.0 mm
01:55 AM 78.0°F25.6°C 33.6°F0.9°C 20% 5.0 mph ESE8.0 kmh ESE 7.0 mph11.3 kmh 29.86 in1011.2 mb 0.00 in0.0 mm 0.00 in0.0 mm 0.00 in0.0 mm
02:00 AM 77.9°F25.5°C 33.5°F0.8°C 20% 3.0 mph SE4.8 kmh SE 8.0 mph12.9 kmh 29.86 in1011.2 mb 0.00 in0.0 mm 0.00 in0.0 mm 0.00 in0.0 mm
02:05 AM 77.9°F25.5°C 33.5°F0.8°C 20% 4.0 mph ESE6.4 kmh ESE 7.0 mph11.3 kmh 29.86 in1011.2 mb 0.00 in0.0 mm 0.00 in0.0 mm 0.00 in0.0 mm
02:10 AM 77.9°F25.5°C 33.5°F0.8°C 20% 2.0 mph SE3.2 kmh SE 5.0 mph8.0 kmh 29.85 in1010.8 mb 0.00 in0.0 mm 0.00 in0.0 mm 0.00 in0.0 mm
02:15 AM 77.8°F25.4°C 34.7°F1.5°C 21% 2.0 mph SE3.2 kmh SE 4.0 mph6.4 kmh 29.86 in1011.2 mb 0.00 in0.0 mm 0.00 in0.0 mm 0.00 in0.0 mm
02:20 AM 77.6°F25.3°C 34.5°F1.4°C 21% 2.0 mph SE3.2 kmh SE 3.0 mph4.8 kmh 29.86 in1011.2 mb 0.00 in0.0 mm 0.00 in0.0 mm 0.00 in0.0 mm
02:25 AM 77.4°F25.2°C 34.3°F1.3°C 21% Calm Calm 9.0 mph14.5 kmh 29.85 in1010.8 mb 0.00 in0.0 mm 0.00 in0.0 mm 0.00 in0.0 mm
02:30 AM 77.2°F25.1°C 34.2°F1.2°C 21% 2.0 mph SE3.2 kmh SE 5.0 mph8.0 kmh 29.86 in1011.2 mb 0.00 in0.0 mm 0.00 in0.0 mm 0.00 in0.0 mm
02:35 AM 77.0°F25.0°C 34.0°F1.1°C 21% 4.0 mph SE6.4 kmh SE 8.0 mph12.9 kmh 29.86 in1011.2 mb 0.00 in0.0 mm 0.00 in0.0 mm 0.00 in0.0 mm
02:40 AM 76.8°F24.9°C 33.8°F1.0°C 21% 2.0 mph SE3.2 kmh SE 8.0 mph12.9 kmh 29.86 in1011.2 mb 0.00 in0.0 mm 0.00 in0.0 mm 0.00 in0.0 mm
02:45 AM 76.6°F24.8°C 32.5°F0.3°C 20% 2.0 mph SE3.2 kmh SE 7.0 mph11.3 kmh 29.86 in1011.2 mb 0.00 in0.0 mm 0.00 in0.0 mm 0.00 in0.0 mm
02:50 AM 76.5°F24.7°C 32.4°F0.2°C 20% 3.0 mph SSE4.8 kmh SSE 6.0 mph9.7 kmh 29.86 in1011.2 mb 0.00 in0.0 mm 0.00 in0.0 mm 0.00 in0.0 mm
02:55 AM 76.5°F24.7°C 31.1°F-0.5°C 19% 2.0 mph SSE3.2 kmh SSE 7.0 mph11.3 kmh 29.86 in1011.2 mb 0.00 in0.0 mm 0.00 in0.0 mm 0.00 in0.0 mm
03:00 AM 76.5°F24.7°C 31.1°F-0.5°C 19% 3.0 mph SE4.8 kmh SE 6.0 mph9.7 kmh 29.86 in1011.2 mb 0.00 in0.0 mm 0.00 in0.0 mm 0.00 in0.0 mm
03:05 AM 76.4°F24.7°C 31.0°F-0.6°C 19% 4.0 mph SE6.4 kmh SE 8.0 mph12.9 kmh 29.86 in1011.2 mb 0.00 in0.0 mm 0.00 in0.0 mm 0.00 in0.0 mm
03:10 AM 76.3°F24.6°C 29.6°F-1.3°C 18% 3.0 mph SE4.8 kmh SE 5.0 mph8.0 kmh 29.86 in1011.2 mb 0.00 in0.0 mm 0.00 in0.0 mm 0.00 in0.0 mm
03:15 AM 76.3°F24.6°C 29.6°F-1.3°C 18% 3.0 mph SE4.8 kmh SE 7.0 mph11.3 kmh 29.86 in1011.2 mb 0.00 in0.0 mm 0.00 in0.0 mm 0.00 in0.0 mm
03:20 AM 76.4°F24.7°C 29.7°F-1.3°C 18% 3.0 mph SE4.8 kmh SE 8.0 mph12.9 kmh 29.86 in1011.2 mb 0.00 in0.0 mm 0.00 in0.0 mm 0.00 in0.0 mm
03:25 AM 76.4°F24.7°C 29.7°F-1.3°C 18% 2.0 mph SE3.2 kmh SE 8.0 mph12.9 kmh 29.86 in1011.2 mb 0.00 in0.0 mm 0.00 in0.0 mm 0.00 in0.0 mm
03:30 AM 76.4°F24.7°C 31.0°F-0.6°C 19% 1.0 mph SE1.6 kmh SE 6.0 mph9.7 kmh 29.87 in1011.5 mb 0.00 in0.0 mm 0.00 in0.0 mm 0.00 in0.0 mm
03:35 AM 76.4°F24.7°C 31.0°F-0.6°C 19% 2.0 mph SE3.2 kmh SE 5.0 mph8.0 kmh 29.87 in1011.5 mb 0.00 in0.0 mm 0.00 in0.0 mm 0.00 in0.0 mm
03:40 AM 76.3°F24.6°C 31.0°F-0.6°C 19% 3.0 mph SE4.8 kmh SE 6.0 mph9.7 kmh 29.87 in1011.5 mb 0.00 in0.0 mm 0.00 in0.0 mm 0.00 in0.0 mm
03:45 AM 76.1°F24.5°C 30.8°F-0.7°C 19% 3.0 mph SE4.8 kmh SE 6.0 mph9.7 kmh 29.87 in1011.5 mb 0.00 in0.0 mm 0.00 in0.0 mm 0.00 in0.0 mm
03:50 AM 76.1°F24.5°C 30.8°F-0.7°C 19% 2.0 mph SE3.2 kmh SE 7.0 mph11.3 kmh 29.87 in1011.5 mb 0.00 in0.0 mm 0.00 in0.0 mm 0.00 in0.0 mm
03:55 AM 76.1°F24.5°C 30.8°F-0.7°C 19% 2.0 mph SE3.2 kmh SE 4.0 mph6.4 kmh 29.87 in1011.5 mb 0.00 in0.0 mm 0.00 in0.0 mm 0.00 in0.0 mm
04:00 AM 75.9°F24.4°C 30.6°F-0.8°C 19% 2.0 mph SE3.2 kmh SE 5.0 mph8.0 kmh 29.87 in1011.5 mb 0.00 in0.0 mm 0.00 in0.0 mm 0.00 in0.0 mm
04:05 AM 75.8°F24.3°C 31.8°F-0.1°C 20% 2.0 mph SE3.2 kmh SE 5.0 mph8.0 kmh 29.87 in1011.5 mb 0.00 in0.0 mm 0.00 in0.0 mm 0.00 in0.0 mm
04:10 AM 75.5°F24.2°C 31.6°F-0.2°C 20% 3.0 mph SE4.8 kmh SE 10.0 mph16.1 kmh 29.87 in1011.5 mb 0.00 in0.0 mm 0.00 in0.0 mm 0.00 in0.0 mm
04:15 AM 75.5°F24.2°C 32.8°F0.4°C 21% 4.0 mph SE6.4 kmh SE 9.0 mph14.5 kmh 29.87 in1011.5 mb 0.00 in0.0 mm 0.00 in0.0 mm 0.00 in0.0 mm
04:20 AM 75.6°F24.2°C 32.9°F0.5°C 21% 6.0 mph SE9.7 kmh SE 10.0 mph16.1 kmh 29.87 in1011.5 mb 0.00 in0.0 mm 0.00 in0.0 mm 0.00 in0.0 mm
04:25 AM 75.6°F24.2°C 34.0°F1.1°C 22% 7.0 mph SE11.3 kmh SE 9.0 mph14.5 kmh 29.88 in1011.9 mb 0.00 in0.0 mm 0.00 in0.0 mm 0.00 in0.0 mm
04:30 AM 75.6°F24.2°C 34.0°F1.1°C 22% 3.0 mph SE4.8 kmh SE 8.0 mph12.9 kmh 29.88 in1011.9 mb 0.00 in0.0 mm 0.00 in0.0 mm 0.00 in0.0 mm
04:35 AM 75.6°F24.2°C 35.1°F1.7°C 23% 1.0 mph SSE1.6 kmh SSE 7.0 mph11.3 kmh 29.88 in1011.9 mb 0.00 in0.0 mm 0.00 in0.0 mm 0.00 in0.0 mm
04:40 AM 75.5°F24.2°C 35.0°F1.7°C 23% 2.0 mph ESE3.2 kmh ESE 6.0 mph9.7 kmh 29.88 in1011.9 mb 0.00 in0.0 mm 0.00 in0.0 mm 0.00 in0.0 mm
04:45 AM 75.4°F24.1°C 35.0°F1.7°C 23% 3.0 mph SE4.8 kmh SE 7.0 mph11.3 kmh 29.88 in1011.9 mb 0.00 in0.0 mm 0.00 in0.0 mm 0.00 in0.0 mm
04:50 AM 75.4°F24.1°C 35.0°F1.7°C 23% 3.0 mph SE4.8 kmh SE 7.0 mph11.3 kmh 29.88 in1011.9 mb 0.00 in0.0 mm 0.00 in0.0 mm 0.00 in0.0 mm
04:55 AM 75.4°F24.1°C 35.0°F1.7°C 23% 4.0 mph SE6.4 kmh SE 7.0 mph11.3 kmh 29.88 in1011.9 mb 0.00 in0.0 mm 0.00 in0.0 mm 0.00 in0.0 mm
05:00 AM 75.3°F24.1°C 35.9°F2.2°C 24% 2.0 mph SE3.2 kmh SE 8.0 mph12.9 kmh 29.88 in1011.9 mb 0.00 in0.0 mm 0.00 in0.0 mm 0.00 in0.0 mm
05:05 AM 75.3°F24.1°C 35.9°F2.2°C 24% 3.0 mph SE4.8 kmh SE 5.0 mph8.0 kmh 29.88 in1011.9 mb 0.00 in0.0 mm 0.00 in0.0 mm 0.00 in0.0 mm
05:10 AM 75.3°F24.1°C 35.9°F2.2°C 24% 2.0 mph SE3.2 kmh SE 8.0 mph12.9 kmh 29.88 in1011.9 mb 0.00 in0.0 mm 0.00 in0.0 mm 0.00 in0.0 mm
05:15 AM 75.3°F24.1°C 35.9°F2.2°C 24% 3.0 mph SE4.8 kmh SE 7.0 mph11.3 kmh 29.88 in1011.9 mb 0.00 in0.0 mm 0.00 in0.0 mm 0.00 in0.0 mm
05:20 AM 75.3°F24.1°C 35.9°F2.2°C 24% 5.0 mph SE8.0 kmh SE 7.0 mph11.3 kmh 29.88 in1011.9 mb 0.00 in0.0 mm 0.00 in0.0 mm 0.00 in0.0 mm
05:25 AM 75.3°F24.1°C 35.9°F2.2°C 24% 5.0 mph SE8.0 kmh SE 8.0 mph12.9 kmh 29.89 in1012.2 mb 0.00 in0.0 mm 0.00 in0.0 mm 0.00 in0.0 mm
05:30 AM 75.3°F24.1°C 35.9°F2.2°C 24% 3.0 mph SE4.8 kmh SE 7.0 mph11.3 kmh 29.89 in1012.2 mb 0.00 in0.0 mm 0.00 in0.0 mm 0.00 in0.0 mm
05:35 AM 75.3°F24.1°C 35.9°F2.2°C 24% 3.0 mph SE4.8 kmh SE 7.0 mph11.3 kmh 29.89 in1012.2 mb 0.00 in0.0 mm 0.00 in0.0 mm 0.00 in0.0 mm
05:40 AM 75.3°F24.1°C 35.9°F2.2°C 24% 1.0 mph SE1.6 kmh SE 4.0 mph6.4 kmh 29.89 in1012.2 mb 0.00 in0.0 mm 0.00 in0.0 mm 0.00 in0.0 mm
05:45 AM 75.2°F24.0°C 35.9°F2.2°C 24% 2.0 mph SE3.2 kmh SE 7.0 mph11.3 kmh 29.89 in1012.2 mb 0.00 in0.0 mm 0.00 in0.0 mm 0.00 in0.0 mm
05:50 AM 75.2°F24.0°C 35.9°F2.2°C 24% 2.0 mph SE3.2 kmh SE 4.0 mph6.4 kmh 29.89 in1012.2 mb 0.00 in0.0 mm 0.00 in0.0 mm 0.00 in0.0 mm
05:55 AM 75.1°F23.9°C 35.8°F2.1°C 24% Calm Calm 2.0 mph3.2 kmh 29.89 in1012.2 mb 0.00 in0.0 mm 0.00 in0.0 mm 0.00 in0.0 mm
06:00 AM 75.0°F23.9°C 35.7°F2.1°C 24% Calm Calm 4.0 mph6.4 kmh 29.90 in1012.5 mb 0.00 in0.0 mm 0.00 in0.0 mm 0.00 in0.0 mm
06:05 AM 74.9°F23.8°C 35.6°F2.0°C 24% Calm Calm 3.0 mph4.8 kmh 29.90 in1012.5 mb 0.00 in0.0 mm 0.00 in0.0 mm 0.00 in0.0 mm
06:10 AM 74.8°F23.8°C 35.5°F1.9°C 24% 1.0 mph SE1.6 kmh SE 4.0 mph6.4 kmh 29.90 in1012.5 mb 0.00 in0.0 mm 0.00 in0.0 mm 0.00 in0.0 mm
06:15 AM 74.9°F23.8°C 35.6°F2.0°C 24% 1.0 mph SE1.6 kmh SE 3.0 mph4.8 kmh 29.90 in1012.5 mb 0.00 in0.0 mm 0.00 in0.0 mm 0.00 in0.0 mm
06:20 AM 75.3°F24.1°C 35.9°F2.2°C 24% 1.0 mph SE1.6 kmh SE 4.0 mph6.4 kmh 29.90 in1012.5 mb 0.00 in0.0 mm 0.00 in0.0 mm 0.00 in0.0 mm
06:25 AM 75.8°F24.3°C 35.3°F1.8°C 23% 2.0 mph SE3.2 kmh SE 4.0 mph6.4 kmh 29.90 in1012.5 mb 0.00 in0.0 mm 0.00 in0.0 mm 0.00 in0.0 mm
06:30 AM 76.2°F24.6°C 35.6°F2.0°C 23% 1.0 mph SSE1.6 kmh SSE 3.0 mph4.8 kmh 29.90 in1012.5 mb 0.00 in0.0 mm 0.00 in0.0 mm 0.00 in0.0 mm
06:35 AM 76.9°F24.9°C 35.1°F1.7°C 22% 2.0 mph SE3.2 kmh SE 4.0 mph6.4 kmh 29.90 in1012.5 mb 0.00 in0.0 mm 0.00 in0.0 mm 0.00 in0.0 mm
06:40 AM 77.5°F25.3°C 35.6°F2.0°C 22% 3.0 mph SE4.8 kmh SE 4.0 mph6.4 kmh 29.90 in1012.5 mb 0.00 in0.0 mm 0.00 in0.0 mm 0.00 in0.0 mm
06:45 AM 78.0°F25.6°C 36.0°F2.2°C 22% 2.0 mph SE3.2 kmh SE 5.0 mph8.0 kmh 29.91 in1012.9 mb 0.00 in0.0 mm 0.00 in0.0 mm 0.00 in0.0 mm
06:50 AM 78.4°F25.8°C 35.2°F1.8°C 21% 3.0 mph SE4.8 kmh SE 4.0 mph6.4 kmh 29.91 in1012.9 mb 0.00 in0.0 mm 0.00 in0.0 mm 0.00 in0.0 mm
06:55 AM 78.9°F26.1°C 35.6°F2.0°C 21% 3.0 mph SSE4.8 kmh SSE 5.0 mph8.0 kmh 29.91 in1012.9 mb 0.00 in0.0 mm 0.00 in0.0 mm 0.00 in0.0 mm
07:00 AM 79.3°F26.3°C 35.9°F2.2°C 21% 2.0 mph SE3.2 kmh SE 6.0 mph9.7 kmh 29.91 in1012.9 mb 0.00 in0.0 mm 0.00 in0.0 mm 0.00 in0.0 mm
07:05 AM 79.8°F26.6°C 35.1°F1.7°C 20% 1.0 mph SSE1.6 kmh SSE 6.0 mph9.7 kmh 29.91 in1012.9 mb 0.00 in0.0 mm 0.00 in0.0 mm 0.00 in0.0 mm
07:10 AM 80.3°F26.8°C 35.5°F1.9°C 20% 3.0 mph SE4.8 kmh SE 5.0 mph8.0 kmh 29.91 in1012.9 mb 0.00 in0.0 mm 0.00 in0.0 mm 0.00 in0.0 mm
07:15 AM 80.7°F27.1°C 34.5°F1.4°C 19% 4.0 mph SSE6.4 kmh SSE 8.0 mph12.9 kmh 29.91 in1012.9 mb 0.00 in0.0 mm 0.00 in0.0 mm 0.00 in0.0 mm
07:20 AM 81.1°F27.3°C 34.9°F1.6°C 19% 5.0 mph SE8.0 kmh SE 7.0 mph11.3 kmh 29.92 in1013.2 mb 0.00 in0.0 mm 0.00 in0.0 mm 0.00 in0.0 mm
07:25 AM 81.5°F27.5°C 35.2°F1.8°C 19% 2.0 mph SE3.2 kmh SE 6.0 mph9.7 kmh 29.92 in1013.2 mb 0.00 in0.0 mm 0.00 in0.0 mm 0.00 in0.0 mm
07:30 AM 81.8°F27.7°C 34.1°F1.2°C 18% 2.0 mph SE3.2 kmh SE 6.0 mph9.7 kmh 29.92 in1013.2 mb 0.00 in0.0 mm 0.00 in0.0 mm 0.00 in0.0 mm
07:35 AM 82.0°F27.8°C 35.6°F2.0°C 19% 1.0 mph SSE1.6 kmh SSE 7.0 mph11.3 kmh 29.92 in1013.2 mb 0.00 in0.0 mm 0.00 in0.0 mm 0.00 in0.0 mm
07:40 AM 82.2°F27.9°C 35.8°F2.1°C 19% Calm Calm 5.0 mph8.0 kmh 29.92 in1013.2 mb 0.00 in0.0 mm 0.00 in0.0 mm 0.00 in0.0 mm
07:45 AM 82.5°F28.1°C 36.0°F2.2°C 19% 1.0 mph SE1.6 kmh SE 5.0 mph8.0 kmh 29.92 in1013.2 mb 0.00 in0.0 mm 0.00 in0.0 mm 0.00 in0.0 mm
07:50 AM 82.9°F28.3°C 36.3°F2.4°C 19% 2.0 mph SSE3.2 kmh SSE 8.0 mph12.9 kmh 29.92 in1013.2 mb 0.00 in0.0 mm 0.00 in0.0 mm 0.00 in0.0 mm
07:55 AM 83.3°F28.5°C 35.3°F1.8°C 18% 4.0 mph S6.4 kmh S 8.0 mph12.9 kmh 29.92 in1013.2 mb 0.00 in0.0 mm 0.00 in0.0 mm 0.00 in0.0 mm
08:00 AM 83.7°F28.7°C 34.2°F1.2°C 17% 5.0 mph SSE8.0 kmh SSE 7.0 mph11.3 kmh 29.92 in1013.2 mb 0.00 in0.0 mm 0.00 in0.0 mm 0.00 in0.0 mm
08:05 AM 84.0°F28.9°C 35.9°F2.2°C 18% 5.0 mph S8.0 kmh S 9.0 mph14.5 kmh 29.92 in1013.2 mb 0.00 in0.0 mm 0.00 in0.0 mm 0.00 in0.0 mm
08:10 AM 84.3°F29.1°C 37.5°F3.1°C 19% 4.0 mph SE6.4 kmh SE 9.0 mph14.5 kmh 29.92 in1013.2 mb 0.00 in0.0 mm 0.00 in0.0 mm 0.00 in0.0 mm
08:15 AM 84.5°F29.2°C 37.6°F3.1°C 19% 2.0 mph SE3.2 kmh SE 7.0 mph11.3 kmh 29.93 in1013.5 mb 0.00 in0.0 mm 0.00 in0.0 mm 0.00 in0.0 mm
08:20 AM 84.6°F29.2°C 36.4°F2.4°C 18% 3.0 mph SSE4.8 kmh SSE 7.0 mph11.3 kmh 29.93 in1013.5 mb 0.00 in0.0 mm 0.00 in0.0 mm 0.00 in0.0 mm
08:25 AM 84.9°F29.4°C 36.6°F2.6°C 18% 2.0 mph SSE3.2 kmh SSE 8.0 mph12.9 kmh 29.93 in1013.5 mb 0.00 in0.0 mm 0.00 in0.0 mm 0.00 in0.0 mm
08:30 AM 85.3°F29.6°C 35.5°F1.9°C 17% 4.0 mph S6.4 kmh S 9.0 mph14.5 kmh 29.93 in1013.5 mb 0.00 in0.0 mm 0.00 in0.0 mm 0.00 in0.0 mm
08:35 AM 85.7°F29.8°C 35.8°F2.1°C 17% 6.0 mph S9.7 kmh S 9.0 mph14.5 kmh 29.93 in1013.5 mb 0.00 in0.0 mm 0.00 in0.0 mm 0.00 in0.0 mm
08:40 AM 86.1°F30.1°C 36.1°F2.3°C 17% 1.0 mph SSE1.6 kmh SSE 8.0 mph12.9 kmh 29.93 in1013.5 mb 0.00 in0.0 mm 0.00 in0.0 mm 0.00 in0.0 mm
08:45 AM 86.2°F30.1°C 37.6°F3.1°C 18% 2.0 mph SE3.2 kmh SE 9.0 mph14.5 kmh 29.93 in1013.5 mb 0.00 in0.0 mm 0.00 in0.0 mm 0.00 in0.0 mm
08:50 AM 86.5°F30.3°C 36.4°F2.4°C 17% 9.0 mph S14.5 kmh S 9.0 mph14.5 kmh 29.93 in1013.5 mb 0.00 in0.0 mm 0.00 in0.0 mm 0.00 in0.0 mm
08:55 AM 86.7°F30.4°C 38.0°F3.3°C 18% 8.0 mph 12.9 kmh 12.0 mph19.3 kmh 29.93 in1013.5 mb 0.00 in0.0 mm 0.00 in0.0 mm 0.00 in0.0 mm
09:00 AM 86.9°F30.5°C 38.2°F3.4°C 18% 3.0 mph SE4.8 kmh SE 8.0 mph12.9 kmh 29.93 in1013.5 mb 0.00 in0.0 mm 0.00 in0.0 mm 0.00 in0.0 mm
09:05 AM 87.2°F30.7°C 37.0°F2.8°C 17% 5.0 mph SSW8.0 kmh SSW 9.0 mph14.5 kmh 29.93 in1013.5 mb 0.00 in0.0 mm 0.00 in0.0 mm 0.00 in0.0 mm
09:10 AM 87.6°F30.9°C 37.3°F2.9°C 17% 4.0 mph SE6.4 kmh SE 9.0 mph14.5 kmh 29.93 in1013.5 mb 0.00 in0.0 mm 0.00 in0.0 mm 0.00 in0.0 mm
09:15 AM 87.8°F31.0°C 37.5°F3.1°C 17% 5.0 mph SSW8.0 kmh SSW 9.0 mph14.5 kmh 29.93 in1013.5 mb 0.00 in0.0 mm 0.00 in0.0 mm 0.00 in0.0 mm
09:20 AM 88.3°F31.3°C 37.9°F3.3°C 17% 8.0 mph SW12.9 kmh SW 10.0 mph16.1 kmh 29.92 in1013.2 mb 0.00 in0.0 mm 0.00 in0.0 mm 0.00 in0.0 mm
09:25 AM 88.9°F31.6°C 36.8°F2.7°C 16% 5.0 mph S8.0 kmh S 11.0 mph17.7 kmh 29.92 in1013.2 mb 0.00 in0.0 mm 0.00 in0.0 mm 0.00 in0.0 mm
09:30 AM 88.8°F31.6°C 36.7°F2.6°C 16% 4.0 mph S6.4 kmh S 9.0 mph14.5 kmh 29.92 in1013.2 mb 0.00 in0.0 mm 0.00 in0.0 mm 0.00 in0.0 mm
09:35 AM 89.0°F31.7°C 36.9°F2.7°C 16% 3.0 mph 4.8 kmh 8.0 mph12.9 kmh 29.92 in1013.2 mb 0.00 in0.0 mm 0.00 in0.0 mm 0.00 in0.0 mm
09:40 AM 89.2°F31.8°C 37.1°F2.8°C 16% 4.0 mph SSE6.4 kmh SSE 9.0 mph14.5 kmh 29.92 in1013.2 mb 0.00 in0.0 mm 0.00 in0.0 mm 0.00 in0.0 mm
09:45 AM 89.4°F31.9°C 37.2°F2.9°C 16% 3.0 mph SSE4.8 kmh SSE 7.0 mph11.3 kmh 29.92 in1013.2 mb 0.00 in0.0 mm 0.00 in0.0 mm 0.00 in0.0 mm
09:50 AM 89.6°F32.0°C 37.4°F3.0°C 16% 7.0 mph SE11.3 kmh SE 11.0 mph17.7 kmh 29.92 in1013.2 mb 0.00 in0.0 mm 0.00 in0.0 mm 0.00 in0.0 mm
09:55 AM 89.8°F32.1°C 37.5°F3.1°C 16% 7.0 mph SSW11.3 kmh SSW 11.0 mph17.7 kmh 29.92 in1013.2 mb 0.00 in0.0 mm 0.00 in0.0 mm 0.00 in0.0 mm
10:00 AM 90.3°F32.4°C 37.9°F3.3°C 16% 4.0 mph SSE6.4 kmh SSE 8.0 mph12.9 kmh 29.92 in1013.2 mb 0.00 in0.0 mm 0.00 in0.0 mm 0.00 in0.0 mm
10:05 AM 90.7°F32.6°C 38.3°F3.5°C 16% 3.0 mph S4.8 kmh S 10.0 mph16.1 kmh 29.92 in1013.2 mb 0.00 in0.0 mm 0.00 in0.0 mm 0.00 in0.0 mm
10:10 AM 91.0°F32.8°C 38.5°F3.6°C 16% 3.0 mph S4.8 kmh S 11.0 mph17.7 kmh 29.92 in1013.2 mb 0.00 in0.0 mm 0.00 in0.0 mm 0.00 in0.0 mm
10:15 AM 91.3°F32.9°C 38.7°F3.7°C 16% 3.0 mph SSW4.8 kmh SSW 9.0 mph14.5 kmh 29.92 in1013.2 mb 0.00 in0.0 mm 0.00 in0.0 mm 0.00 in0.0 mm
10:20 AM 91.8°F33.2°C 39.1°F3.9°C 16% 6.0 mph 9.7 kmh 16.0 mph25.7 kmh 29.92 in1013.2 mb 0.00 in0.0 mm 0.00 in0.0 mm 0.00 in0.0 mm
10:25 AM 92.0°F33.3°C 39.3°F4.1°C 16% 3.0 mph S4.8 kmh S 11.0 mph17.7 kmh 29.92 in1013.2 mb 0.00 in0.0 mm 0.00 in0.0 mm 0.00 in0.0 mm
10:30 AM 92.0°F33.3°C 39.3°F4.1°C 16% 5.0 mph SSE8.0 kmh SSE 9.0 mph14.5 kmh 29.92 in1013.2 mb 0.00 in0.0 mm 0.00 in0.0 mm 0.00 in0.0 mm
10:35 AM 92.2°F33.4°C 39.5°F4.2°C 16% 7.0 mph S11.3 kmh S 7.0 mph11.3 kmh 29.92 in1013.2 mb 0.00 in0.0 mm 0.00 in0.0 mm 0.00 in0.0 mm
10:40 AM 92.3°F33.5°C 39.5°F4.2°C 16% 2.0 mph SSE3.2 kmh SSE 9.0 mph14.5 kmh 29.92 in1013.2 mb 0.00 in0.0 mm 0.00 in0.0 mm 0.00 in0.0 mm
10:45 AM 91.8°F33.2°C 39.1°F3.9°C 16% 3.0 mph SE4.8 kmh SE 6.0 mph9.7 kmh 29.92 in1013.2 mb 0.00 in0.0 mm 0.00 in0.0 mm 0.00 in0.0 mm
10:50 AM 91.9°F33.3°C 39.2°F4.0°C 16% 5.0 mph S8.0 kmh S 10.0 mph16.1 kmh 29.92 in1013.2 mb 0.00 in0.0 mm 0.00 in0.0 mm 0.00 in0.0 mm
10:55 AM 92.3°F33.5°C 39.5°F4.2°C 16% 3.0 mph SSW4.8 kmh SSW 10.0 mph16.1 kmh 29.92 in1013.2 mb 0.00 in0.0 mm 0.00 in0.0 mm 0.00 in0.0 mm
11:00 AM 92.7°F33.7°C 41.4°F5.2°C 17% 4.0 mph WSW6.4 kmh WSW 9.0 mph14.5 kmh 29.92 in1013.2 mb 0.00 in0.0 mm 0.00 in0.0 mm 0.00 in0.0 mm
11:05 AM 93.0°F33.9°C 40.1°F4.5°C 16% 3.0 mph S4.8 kmh S 5.0 mph8.0 kmh 29.92 in1013.2 mb 0.00 in0.0 mm 0.00 in0.0 mm 0.00 in0.0 mm
11:10 AM 93.5°F34.2°C 42.1°F5.6°C 17% 3.0 mph WSW4.8 kmh WSW 9.0 mph14.5 kmh 29.92 in1013.2 mb 0.00 in0.0 mm 0.00 in0.0 mm 0.00 in0.0 mm
11:15 AM 93.5°F34.2°C 40.5°F4.7°C 16% 4.0 mph S6.4 kmh S 8.0 mph12.9 kmh 29.92 in1013.2 mb 0.00 in0.0 mm 0.00 in0.0 mm 0.00 in0.0 mm
11:20 AM 93.7°F34.3°C 40.6°F4.8°C 16% 4.0 mph SSE6.4 kmh SSE 8.0 mph12.9 kmh 29.91 in1012.9 mb 0.00 in0.0 mm 0.00 in0.0 mm 0.00 in0.0 mm
11:25 AM 93.6°F34.2°C 40.6°F4.8°C 16% 3.0 mph S4.8 kmh S 12.0 mph19.3 kmh 29.91 in1012.9 mb 0.00 in0.0 mm 0.00 in0.0 mm 0.00 in0.0 mm
11:30 AM 93.7°F34.3°C 40.6°F4.8°C 16% 5.0 mph S8.0 kmh S 12.0 mph19.3 kmh 29.91 in1012.9 mb 0.00 in0.0 mm 0.00 in0.0 mm 0.00 in0.0 mm
11:35 AM 94.2°F34.6°C 39.4°F4.1°C 15% 1.0 mph SW1.6 kmh SW 11.0 mph17.7 kmh 29.91 in1012.9 mb 0.00 in0.0 mm 0.00 in0.0 mm 0.00 in0.0 mm
11:40 AM 94.2°F34.6°C 39.4°F4.1°C 15% 6.0 mph SW9.7 kmh SW 6.0 mph9.7 kmh 29.91 in1012.9 mb 0.00 in0.0 mm 0.00 in0.0 mm 0.00 in0.0 mm
11:45 AM 94.4°F34.7°C 39.5°F4.2°C 15% 7.0 mph WSW11.3 kmh WSW 14.0 mph22.5 kmh 29.91 in1012.9 mb 0.00 in0.0 mm 0.00 in0.0 mm 0.00 in0.0 mm
11:50 AM 94.8°F34.9°C 39.9°F4.4°C 15% 4.0 mph SSW6.4 kmh SSW 13.0 mph20.9 kmh 29.91 in1012.9 mb 0.00 in0.0 mm 0.00 in0.0 mm 0.00 in0.0 mm
11:55 AM 94.9°F34.9°C 39.9°F4.4°C 15% 2.0 mph SW3.2 kmh SW 14.0 mph22.5 kmh 29.91 in1012.9 mb 0.00 in0.0 mm 0.00 in0.0 mm 0.00 in0.0 mm
12:00 PM 94.7°F34.8°C 39.8°F4.3°C 15% 3.0 mph SW4.8 kmh SW 10.0 mph16.1 kmh 29.91 in1012.9 mb 0.00 in0.0 mm 0.00 in0.0 mm 0.00 in0.0 mm
12:05 PM 94.5°F34.7°C 39.6°F4.2°C 15% 6.0 mph S9.7 kmh S 10.0 mph16.1 kmh 29.90 in1012.5 mb 0.00 in0.0 mm 0.00 in0.0 mm 0.00 in0.0 mm
12:10 PM 94.7°F34.8°C 38.0°F3.3°C 14% 5.0 mph S8.0 kmh S 9.0 mph14.5 kmh 29.90 in1012.5 mb 0.00 in0.0 mm 0.00 in0.0 mm 0.00 in0.0 mm
12:15 PM 94.8°F34.9°C 39.9°F4.4°C 15% Calm Calm 9.0 mph14.5 kmh 29.90 in1012.5 mb 0.00 in0.0 mm 0.00 in0.0 mm 0.00 in0.0 mm
12:20 PM 94.8°F34.9°C 39.9°F4.4°C 15% 6.0 mph SW9.7 kmh SW 12.0 mph19.3 kmh 29.90 in1012.5 mb 0.00 in0.0 mm 0.00 in0.0 mm 0.00 in0.0 mm
12:25 PM 95.2°F35.1°C 38.4°F3.6°C 14% 7.0 mph S11.3 kmh S 12.0 mph19.3 kmh 29.90 in1012.5 mb 0.00 in0.0 mm 0.00 in0.0 mm 0.00 in0.0 mm
12:30 PM 95.5°F35.3°C 40.4°F4.7°C 15% 3.0 mph SE4.8 kmh SE 11.0 mph17.7 kmh 29.90 in1012.5 mb 0.00 in0.0 mm 0.00 in0.0 mm 0.00 in0.0 mm
12:35 PM 95.3°F35.2°C 38.5°F3.6°C 14% 4.0 mph SSE6.4 kmh SSE 8.0 mph12.9 kmh 29.90 in1012.5 mb 0.00 in0.0 mm 0.00 in0.0 mm 0.00 in0.0 mm
12:40 PM 94.9°F34.9°C 39.9°F4.4°C 15% 5.0 mph SW8.0 kmh SW 20.0 mph32.2 kmh 29.89 in1012.2 mb 0.00 in0.0 mm 0.00 in0.0 mm 0.00 in0.0 mm
12:45 PM 95.1°F35.1°C 40.1°F4.5°C 15% 5.0 mph SW8.0 kmh SW 19.0 mph30.6 kmh 29.90 in1012.5 mb 0.00 in0.0 mm 0.00 in0.0 mm 0.00 in0.0 mm
12:50 PM 95.9°F35.5°C 40.7°F4.8°C 15% 5.0 mph SW8.0 kmh SW 7.0 mph11.3 kmh 29.90 in1012.5 mb 0.00 in0.0 mm 0.00 in0.0 mm 0.00 in0.0 mm
12:55 PM 96.5°F35.8°C 41.2°F5.1°C 15% 5.0 mph SW8.0 kmh SW 10.0 mph16.1 kmh 29.89 in1012.2 mb 0.00 in0.0 mm 0.00 in0.0 mm 0.00 in0.0 mm
01:00 PM 96.1°F35.6°C 40.9°F4.9°C 15% 4.0 mph SSW6.4 kmh SSW 9.0 mph14.5 kmh 29.89 in1012.2 mb 0.00 in0.0 mm 0.00 in0.0 mm 0.00 in0.0 mm
01:05 PM 96.2°F35.7°C 39.2°F4.0°C 14% 3.0 mph SSE4.8 kmh SSE 8.0 mph12.9 kmh 29.89 in1012.2 mb 0.00 in0.0 mm 0.00 in0.0 mm 0.00 in0.0 mm
01:10 PM 95.6°F35.3°C 38.7°F3.7°C 14% 6.0 mph S9.7 kmh S 12.0 mph19.3 kmh 29.89 in1012.2 mb 0.00 in0.0 mm 0.00 in0.0 mm 0.00 in0.0 mm
01:15 PM 96.0°F35.6°C 37.1°F2.8°C 13% 2.0 mph SE3.2 kmh SE 7.0 mph11.3 kmh 29.89 in1012.2 mb 0.00 in0.0 mm 0.00 in0.0 mm 0.00 in0.0 mm
01:20 PM 95.7°F35.4°C 38.8°F3.8°C 14% 8.0 mph WSW12.9 kmh WSW 10.0 mph16.1 kmh 29.89 in1012.2 mb 0.00 in0.0 mm 0.00 in0.0 mm 0.00 in0.0 mm
01:25 PM 96.0°F35.6°C 37.1°F2.8°C 13% 4.0 mph SW6.4 kmh SW 9.0 mph14.5 kmh 29.88 in1011.9 mb 0.00 in0.0 mm 0.00 in0.0 mm 0.00 in0.0 mm
01:30 PM 96.7°F35.9°C 39.6°F4.2°C 14% 3.0 mph S4.8 kmh S 9.0 mph14.5 kmh 29.88 in1011.9 mb 0.00 in0.0 mm 0.00 in0.0 mm 0.00 in0.0 mm
01:35 PM 97.0°F36.1°C 39.8°F4.3°C 14% 7.0 mph SSW11.3 kmh SSW 10.0 mph16.1 kmh 29.88 in1011.9 mb 0.00 in0.0 mm 0.00 in0.0 mm 0.00 in0.0 mm
01:40 PM 97.0°F36.1°C 37.9°F3.3°C 13% 2.0 mph SSW3.2 kmh SSW 11.0 mph17.7 kmh 29.88 in1011.9 mb 0.00 in0.0 mm 0.00 in0.0 mm 0.00 in0.0 mm
01:45 PM 97.4°F36.3°C 38.2°F3.4°C 13% 7.0 mph W11.3 kmh W 7.0 mph11.3 kmh 29.87 in1011.5 mb 0.00 in0.0 mm 0.00 in0.0 mm 0.00 in0.0 mm
01:50 PM 97.4°F36.3°C 34.0°F1.1°C 11% 6.0 mph WSW9.7 kmh WSW 15.0 mph24.1 kmh 29.88 in1011.9 mb 0.00 in0.0 mm 0.00 in0.0 mm 0.00 in0.0 mm
01:55 PM 97.1°F36.2°C 33.8°F1.0°C 11% 3.0 mph WSW4.8 kmh WSW 9.0 mph14.5 kmh 29.87 in1011.5 mb 0.00 in0.0 mm 0.00 in0.0 mm 0.00 in0.0 mm
02:00 PM 96.7°F35.9°C 33.5°F0.8°C 11% 3.0 mph SW4.8 kmh SW 9.0 mph14.5 kmh 29.87 in1011.5 mb 0.00 in0.0 mm 0.00 in0.0 mm 0.00 in0.0 mm
02:05 PM 96.6°F35.9°C 33.4°F0.8°C 11% 3.0 mph SE4.8 kmh SE 5.0 mph8.0 kmh 29.87 in1011.5 mb 0.00 in0.0 mm 0.00 in0.0 mm 0.00 in0.0 mm
02:10 PM 96.7°F35.9°C 35.7°F2.1°C 12% 9.0 mph WSW14.5 kmh WSW 9.0 mph14.5 kmh 29.87 in1011.5 mb 0.00 in0.0 mm 0.00 in0.0 mm 0.00 in0.0 mm
02:15 PM 96.7°F35.9°C 31.1°F-0.5°C 10% 4.0 mph S6.4 kmh S 11.0 mph17.7 kmh 29.87 in1011.5 mb 0.00 in0.0 mm 0.00 in0.0 mm 0.00 in0.0 mm
02:20 PM 98.0°F36.7°C 29.5°F-1.4°C 9% 5.0 mph S8.0 kmh S 10.0 mph16.1 kmh 29.87 in1011.5 mb 0.00 in0.0 mm 0.00 in0.0 mm 0.00 in0.0 mm
02:25 PM 98.6°F37.0°C 32.5°F0.3°C 10% 5.0 mph SW8.0 kmh SW 10.0 mph16.1 kmh 29.87 in1011.5 mb 0.00 in0.0 mm 0.00 in0.0 mm 0.00 in0.0 mm
02:30 PM 99.0°F37.2°C 32.8°F0.4°C 10% 2.0 mph WSW3.2 kmh WSW 7.0 mph11.3 kmh 29.87 in1011.5 mb 0.00 in0.0 mm 0.00 in0.0 mm 0.00 in0.0 mm
02:35 PM 98.0°F36.7°C 29.5°F-1.4°C 9% 6.0 mph WNW9.7 kmh WNW 11.0 mph17.7 kmh 29.87 in1011.5 mb 0.00 in0.0 mm 0.00 in0.0 mm 0.00 in0.0 mm
02:40 PM 97.1°F36.2°C 28.8°F-1.8°C 9% 10.0 mph SW16.1 kmh SW 11.0 mph17.7 kmh 29.86 in1011.2 mb 0.00 in0.0 mm 0.00 in0.0 mm 0.00 in0.0 mm
02:45 PM 97.1°F36.2°C 31.4°F-0.3°C 10% 6.0 mph S9.7 kmh S 13.0 mph20.9 kmh 29.86 in1011.2 mb 0.00 in0.0 mm 0.00 in0.0 mm 0.00 in0.0 mm
02:50 PM 97.5°F36.4°C 29.1°F-1.6°C 9% 8.0 mph SW12.9 kmh SW 14.0 mph22.5 kmh 29.86 in1011.2 mb 0.00 in0.0 mm 0.00 in0.0 mm 0.00 in0.0 mm
02:55 PM 97.8°F36.6°C 29.3°F-1.5°C 9% 4.0 mph S6.4 kmh S 11.0 mph17.7 kmh 29.86 in1011.2 mb 0.00 in0.0 mm 0.00 in0.0 mm 0.00 in0.0 mm
03:00 PM 98.1°F36.7°C 29.6°F-1.3°C 9% 3.0 mph WSW4.8 kmh WSW 7.0 mph11.3 kmh 29.86 in1011.2 mb 0.00 in0.0 mm 0.00 in0.0 mm 0.00 in0.0 mm
03:05 PM 98.5°F36.9°C 29.9°F-1.2°C 9% 8.0 mph SW12.9 kmh SW 16.0 mph25.7 kmh 29.85 in1010.8 mb 0.00 in0.0 mm 0.00 in0.0 mm 0.00 in0.0 mm
03:10 PM 98.3°F36.8°C 29.7°F-1.3°C 9% 5.0 mph SW8.0 kmh SW 12.0 mph19.3 kmh 29.85 in1010.8 mb 0.00 in0.0 mm 0.00 in0.0 mm 0.00 in0.0 mm
03:15 PM 98.2°F36.8°C 32.2°F0.1°C 10% 6.0 mph S9.7 kmh S 9.0 mph14.5 kmh 29.85 in1010.8 mb 0.00 in0.0 mm 0.00 in0.0 mm 0.00 in0.0 mm
03:20 PM 98.4°F36.9°C 29.8°F-1.2°C 9% Calm Calm 7.0 mph11.3 kmh 29.85 in1010.8 mb 0.00 in0.0 mm 0.00 in0.0 mm 0.00 in0.0 mm
03:25 PM 98.5°F36.9°C 29.9°F-1.2°C 9% 4.0 mph WNW6.4 kmh WNW 6.0 mph9.7 kmh 29.85 in1010.8 mb 0.00 in0.0 mm 0.00 in0.0 mm 0.00 in0.0 mm
03:30 PM 98.3°F36.8°C 29.7°F-1.3°C 9% 3.0 mph SSW4.8 kmh SSW 8.0 mph12.9 kmh 29.85 in1010.8 mb 0.00 in0.0 mm 0.00 in0.0 mm 0.00 in0.0 mm
03:35 PM 98.3°F36.8°C 29.7°F-1.3°C 9% 7.0 mph WSW11.3 kmh WSW 12.0 mph19.3 kmh 29.85 in1010.8 mb 0.00 in0.0 mm 0.00 in0.0 mm 0.00 in0.0 mm
03:40 PM 97.8°F36.6°C 26.5°F-3.1°C 8% 5.0 mph WNW8.0 kmh WNW 14.0 mph22.5 kmh 29.85 in1010.8 mb 0.00 in0.0 mm 0.00 in0.0 mm 0.00 in0.0 mm
03:45 PM 97.6°F36.4°C 29.2°F-1.6°C 9% 10.0 mph 16.1 kmh 12.0 mph19.3 kmh 29.85 in1010.8 mb 0.00 in0.0 mm 0.00 in0.0 mm 0.00 in0.0 mm
03:50 PM 97.4°F36.3°C 26.2°F-3.2°C 8% 6.0 mph WSW9.7 kmh WSW 14.0 mph22.5 kmh 29.84 in1010.5 mb 0.00 in0.0 mm 0.00 in0.0 mm 0.00 in0.0 mm
03:55 PM 97.0°F36.1°C 25.9°F-3.4°C 8% 4.0 mph N6.4 kmh N 15.0 mph24.1 kmh 29.84 in1010.5 mb 0.00 in0.0 mm 0.00 in0.0 mm 0.00 in0.0 mm
04:00 PM 96.8°F36.0°C 28.6°F-1.9°C 9% 7.0 mph WSW11.3 kmh WSW 12.0 mph19.3 kmh 29.84 in1010.5 mb 0.00 in0.0 mm 0.00 in0.0 mm 0.00 in0.0 mm
04:05 PM 96.6°F35.9°C 28.4°F-2.0°C 9% Calm Calm 9.0 mph14.5 kmh 29.84 in1010.5 mb 0.00 in0.0 mm 0.00 in0.0 mm 0.00 in0.0 mm
04:10 PM 97.0°F36.1°C 28.7°F-1.8°C 9% 1.0 mph W1.6 kmh W 8.0 mph12.9 kmh 29.84 in1010.5 mb 0.00 in0.0 mm 0.00 in0.0 mm 0.00 in0.0 mm
04:15 PM 97.1°F36.2°C 28.8°F-1.8°C 9% 6.0 mph WSW9.7 kmh WSW 12.0 mph19.3 kmh 29.84 in1010.5 mb 0.00 in0.0 mm 0.00 in0.0 mm 0.00 in0.0 mm
04:20 PM 96.7°F35.9°C 28.5°F-1.9°C 9% 7.0 mph WSW11.3 kmh WSW 11.0 mph17.7 kmh 29.84 in1010.5 mb 0.00 in0.0 mm 0.00 in0.0 mm 0.00 in0.0 mm
04:25 PM 96.8°F36.0°C 28.6°F-1.9°C 9% Calm Calm 8.0 mph12.9 kmh 29.84 in1010.5 mb 0.00 in0.0 mm 0.00 in0.0 mm 0.00 in0.0 mm
04:30 PM 97.2°F36.2°C 28.9°F-1.7°C 9% 9.0 mph WSW14.5 kmh WSW 9.0 mph14.5 kmh 29.84 in1010.5 mb 0.00 in0.0 mm 0.00 in0.0 mm 0.00 in0.0 mm
04:35 PM 97.3°F36.3°C 26.1°F-3.3°C 8% 7.0 mph W11.3 kmh W 10.0 mph16.1 kmh 29.83 in1010.2 mb 0.00 in0.0 mm 0.00 in0.0 mm 0.00 in0.0 mm
04:40 PM 97.2°F36.2°C 26.0°F-3.3°C 8% 6.0 mph SW9.7 kmh SW 12.0 mph19.3 kmh 29.83 in1010.2 mb 0.00 in0.0 mm 0.00 in0.0 mm 0.00 in0.0 mm
04:45 PM 97.2°F36.2°C 28.9°F-1.7°C 9% 1.0 mph S1.6 kmh S 8.0 mph12.9 kmh 29.83 in1010.2 mb 0.00 in0.0 mm 0.00 in0.0 mm 0.00 in0.0 mm
04:50 PM 97.5°F36.4°C 29.1°F-1.6°C 9% 8.0 mph WSW12.9 kmh WSW 12.0 mph19.3 kmh 29.83 in1010.2 mb 0.00 in0.0 mm 0.00 in0.0 mm 0.00 in0.0 mm
04:55 PM 97.3°F36.3°C 29.0°F-1.7°C 9% 4.0 mph W6.4 kmh W 14.0 mph22.5 kmh 29.83 in1010.2 mb 0.00 in0.0 mm 0.00 in0.0 mm 0.00 in0.0 mm
05:00 PM 97.0°F36.1°C 28.7°F-1.8°C 9% 3.0 mph SW4.8 kmh SW 9.0 mph14.5 kmh 29.83 in1010.2 mb 0.00 in0.0 mm 0.00 in0.0 mm 0.00 in0.0 mm
05:05 PM 97.2°F36.2°C 28.9°F-1.7°C 9% 5.0 mph SW8.0 kmh SW 10.0 mph16.1 kmh 29.83 in1010.2 mb 0.00 in0.0 mm 0.00 in0.0 mm 0.00 in0.0 mm
05:10 PM 97.2°F36.2°C 31.5°F-0.3°C 10% 2.0 mph WSW3.2 kmh WSW 7.0 mph11.3 kmh 29.83 in1010.2 mb 0.00 in0.0 mm 0.00 in0.0 mm 0.00 in0.0 mm
05:15 PM 97.2°F36.2°C 31.5°F-0.3°C 10% Calm Calm 4.0 mph6.4 kmh 29.83 in1010.2 mb 0.00 in0.0 mm 0.00 in0.0 mm 0.00 in0.0 mm
05:20 PM 97.4°F36.3°C 29.0°F-1.7°C 9% 4.0 mph SW6.4 kmh SW 8.0 mph12.9 kmh 29.83 in1010.2 mb 0.00 in0.0 mm 0.00 in0.0 mm 0.00 in0.0 mm
05:25 PM 97.5°F36.4°C 29.1°F-1.6°C 9% 7.0 mph SSW11.3 kmh SSW 12.0 mph19.3 kmh 29.82 in1009.8 mb 0.00 in0.0 mm 0.00 in0.0 mm 0.00 in0.0 mm
05:30 PM 97.4°F36.3°C 29.0°F-1.7°C 9% Calm Calm 8.0 mph12.9 kmh 29.82 in1009.8 mb 0.00 in0.0 mm 0.00 in0.0 mm 0.00 in0.0 mm
05:35 PM 97.4°F36.3°C 31.6°F-0.2°C 10% 1.0 mph SSW1.6 kmh SSW 7.0 mph11.3 kmh 29.82 in1009.8 mb 0.00 in0.0 mm 0.00 in0.0 mm 0.00 in0.0 mm
05:40 PM 97.3°F36.3°C 33.9°F1.1°C 11% 6.0 mph W9.7 kmh W 11.0 mph17.7 kmh 29.82 in1009.8 mb 0.00 in0.0 mm 0.00 in0.0 mm 0.00 in0.0 mm
05:45 PM 96.8°F36.0°C 33.5°F0.8°C 11% 5.0 mph SW8.0 kmh SW 9.0 mph14.5 kmh 29.82 in1009.8 mb 0.00 in0.0 mm 0.00 in0.0 mm 0.00 in0.0 mm
05:50 PM 96.6°F35.9°C 33.4°F0.8°C 11% 5.0 mph SW8.0 kmh SW 8.0 mph12.9 kmh 29.82 in1009.8 mb 0.00 in0.0 mm 0.00 in0.0 mm 0.00 in0.0 mm
05:55 PM 96.4°F35.8°C 33.2°F0.7°C 11% 5.0 mph W8.0 kmh W 12.0 mph19.3 kmh 29.82 in1009.8 mb 0.00 in0.0 mm 0.00 in0.0 mm 0.00 in0.0 mm
06:00 PM 96.0°F35.6°C 32.9°F0.5°C 11% 3.0 mph SW4.8 kmh SW 10.0 mph16.1 kmh 29.82 in1009.8 mb 0.00 in0.0 mm 0.00 in0.0 mm 0.00 in0.0 mm
06:05 PM 95.8°F35.4°C 32.8°F0.4°C 11% 8.0 mph W12.9 kmh W 13.0 mph20.9 kmh 29.82 in1009.8 mb 0.00 in0.0 mm 0.00 in0.0 mm 0.00 in0.0 mm
06:10 PM 95.5°F35.3°C 34.7°F1.5°C 12% 4.0 mph NW6.4 kmh NW 11.0 mph17.7 kmh 29.82 in1009.8 mb 0.00 in0.0 mm 0.00 in0.0 mm 0.00 in0.0 mm
06:15 PM 95.3°F35.2°C 34.6°F1.4°C 12% 3.0 mph NW4.8 kmh NW 8.0 mph12.9 kmh 29.83 in1010.2 mb 0.00 in0.0 mm 0.00 in0.0 mm 0.00 in0.0 mm
06:20 PM 95.1°F35.1°C 34.4°F1.3°C 12% 4.0 mph WNW6.4 kmh WNW 7.0 mph11.3 kmh 29.83 in1010.2 mb 0.00 in0.0 mm 0.00 in0.0 mm 0.00 in0.0 mm
06:25 PM 95.0°F35.0°C 32.2°F0.1°C 11% 2.0 mph NW3.2 kmh NW 5.0 mph8.0 kmh 29.83 in1010.2 mb 0.00 in0.0 mm 0.00 in0.0 mm 0.00 in0.0 mm
06:30 PM 95.0°F35.0°C 32.2°F0.1°C 11% 5.0 mph WNW8.0 kmh WNW 8.0 mph12.9 kmh 29.83 in1010.2 mb 0.00 in0.0 mm 0.00 in0.0 mm 0.00 in0.0 mm
06:35 PM 94.8°F34.9°C 32.0°F0.0°C 11% 2.0 mph NNW3.2 kmh NNW 5.0 mph8.0 kmh 29.83 in1010.2 mb 0.00 in0.0 mm 0.00 in0.0 mm 0.00 in0.0 mm
06:40 PM 94.9°F34.9°C 32.1°F0.1°C 11% 4.0 mph NW6.4 kmh NW 5.0 mph8.0 kmh 29.83 in1010.2 mb 0.00 in0.0 mm 0.00 in0.0 mm 0.00 in0.0 mm
06:45 PM 95.0°F35.0°C 32.2°F0.1°C 11% 2.0 mph N3.2 kmh N 8.0 mph12.9 kmh 29.83 in1010.2 mb 0.00 in0.0 mm 0.00 in0.0 mm 0.00 in0.0 mm
06:50 PM 94.9°F34.9°C 32.1°F0.1°C 11% 5.0 mph NW8.0 kmh NW 7.0 mph11.3 kmh 29.83 in1010.2 mb 0.00 in0.0 mm 0.00 in0.0 mm 0.00 in0.0 mm
06:55 PM 94.5°F34.7°C 31.8°F-0.1°C 11% 4.0 mph NNW6.4 kmh NNW 8.0 mph12.9 kmh 29.83 in1010.2 mb 0.00 in0.0 mm 0.00 in0.0 mm 0.00 in0.0 mm
07:00 PM 94.3°F34.6°C 31.6°F-0.2°C 11% 3.0 mph NW4.8 kmh NW 6.0 mph9.7 kmh 29.83 in1010.2 mb 0.00 in0.0 mm 0.00 in0.0 mm 0.00 in0.0 mm
07:05 PM 94.0°F34.4°C 33.6°F0.9°C 12% 3.0 mph WNW4.8 kmh WNW 5.0 mph8.0 kmh 29.83 in1010.2 mb 0.00 in0.0 mm 0.00 in0.0 mm 0.00 in0.0 mm
07:10 PM 93.7°F34.3°C 31.2°F-0.4°C 11% 4.0 mph NW6.4 kmh NW 8.0 mph12.9 kmh 29.83 in1010.2 mb 0.00 in0.0 mm 0.00 in0.0 mm 0.00 in0.0 mm
07:15 PM 93.2°F34.0°C 33.0°F0.6°C 12% 6.0 mph WNW9.7 kmh WNW 7.0 mph11.3 kmh 29.83 in1010.2 mb 0.00 in0.0 mm 0.00 in0.0 mm 0.00 in0.0 mm
07:20 PM 92.8°F33.8°C 32.7°F0.4°C 12% 4.0 mph NW6.4 kmh NW 6.0 mph9.7 kmh 29.83 in1010.2 mb 0.00 in0.0 mm 0.00 in0.0 mm 0.00 in0.0 mm
07:25 PM 92.5°F33.6°C 30.3°F-0.9°C 11% 4.0 mph NW6.4 kmh NW 8.0 mph12.9 kmh 29.83 in1010.2 mb 0.00 in0.0 mm 0.00 in0.0 mm 0.00 in0.0 mm
07:30 PM 92.0°F33.3°C 29.9°F-1.2°C 11% 5.0 mph WNW8.0 kmh WNW 6.0 mph9.7 kmh 29.83 in1010.2 mb 0.00 in0.0 mm 0.00 in0.0 mm 0.00 in0.0 mm
07:35 PM 91.5°F33.1°C 29.5°F-1.4°C 11% 4.0 mph W6.4 kmh W 6.0 mph9.7 kmh 29.83 in1010.2 mb 0.00 in0.0 mm 0.00 in0.0 mm 0.00 in0.0 mm
07:40 PM 91.1°F32.8°C 31.3°F-0.4°C 12% 3.0 mph NW4.8 kmh NW 5.0 mph8.0 kmh 29.83 in1010.2 mb 0.00 in0.0 mm 0.00 in0.0 mm 0.00 in0.0 mm
07:45 PM 90.7°F32.6°C 31.0°F-0.6°C 12% 2.0 mph WNW3.2 kmh WNW 4.0 mph6.4 kmh 29.83 in1010.2 mb 0.00 in0.0 mm 0.00 in0.0 mm 0.00 in0.0 mm
07:50 PM 90.3°F32.4°C 30.7°F-0.7°C 12% 2.0 mph NW3.2 kmh NW 4.0 mph6.4 kmh 29.83 in1010.2 mb 0.00 in0.0 mm 0.00 in0.0 mm 0.00 in0.0 mm
07:55 PM 89.9°F32.2°C 30.4°F-0.9°C 12% Calm Calm 4.0 mph6.4 kmh 29.83 in1010.2 mb 0.00 in0.0 mm 0.00 in0.0 mm 0.00 in0.0 mm
08:00 PM 89.6°F32.0°C 30.2°F-1.0°C 12% Calm Calm 3.0 mph4.8 kmh 29.83 in1010.2 mb 0.00 in0.0 mm 0.00 in0.0 mm 0.00 in0.0 mm
08:05 PM 89.3°F31.8°C 30.0°F-1.1°C 12% 1.0 mph NW1.6 kmh NW 3.0 mph4.8 kmh 29.84 in1010.5 mb 0.00 in0.0 mm 0.00 in0.0 mm 0.00 in0.0 mm
08:10 PM 89.0°F31.7°C 29.7°F-1.3°C 12% Calm Calm 3.0 mph4.8 kmh 29.84 in1010.5 mb 0.00 in0.0 mm 0.00 in0.0 mm 0.00 in0.0 mm
08:15 PM 88.7°F31.5°C 31.5°F-0.3°C 13% 1.0 mph NW1.6 kmh NW 2.0 mph3.2 kmh 29.84 in1010.5 mb 0.00 in0.0 mm 0.00 in0.0 mm 0.00 in0.0 mm
08:20 PM 88.4°F31.3°C 31.2°F-0.4°C 13% 1.0 mph NW1.6 kmh NW 3.0 mph4.8 kmh 29.84 in1010.5 mb 0.00 in0.0 mm 0.00 in0.0 mm 0.00 in0.0 mm
08:25 PM 88.1°F31.2°C 31.0°F-0.6°C 13% Calm Calm 1.0 mph1.6 kmh 29.84 in1010.5 mb 0.00 in0.0 mm 0.00 in0.0 mm 0.00 in0.0 mm
08:30 PM 87.7°F30.9°C 30.7°F-0.7°C 13% Calm Calm -- 29.84 in1010.5 mb 0.00 in0.0 mm 0.00 in0.0 mm 0.00 in0.0 mm
08:35 PM 87.3°F30.7°C 30.4°F-0.9°C 13% Calm Calm -- 29.84 in1010.5 mb 0.00 in0.0 mm 0.00 in0.0 mm 0.00 in0.0 mm
08:40 PM 86.8°F30.4°C 30.0°F-1.1°C 13% Calm Calm -- 29.84 in1010.5 mb 0.00 in0.0 mm 0.00 in0.0 mm 0.00 in0.0 mm
08:45 PM 86.3°F30.2°C 29.6°F-1.3°C 13% Calm Calm 1.0 mph1.6 kmh 29.84 in1010.5 mb 0.00 in0.0 mm 0.00 in0.0 mm 0.00 in0.0 mm
08:50 PM 85.7°F29.8°C 31.0°F-0.6°C 14% Calm Calm 1.0 mph1.6 kmh 29.84 in1010.5 mb 0.00 in0.0 mm 0.00 in0.0 mm 0.00 in0.0 mm
08:55 PM 85.2°F29.6°C 30.6°F-0.8°C 14% Calm Calm 3.0 mph4.8 kmh 29.85 in1010.8 mb 0.00 in0.0 mm 0.00 in0.0 mm 0.00 in0.0 mm
09:00 PM 84.7°F29.3°C 30.2°F-1.0°C 14% 1.0 mph NW1.6 kmh NW 2.0 mph3.2 kmh 29.85 in1010.8 mb 0.00 in0.0 mm 0.00 in0.0 mm 0.00 in0.0 mm
09:05 PM 84.3°F29.1°C 29.9°F-1.2°C 14% Calm Calm 2.0 mph3.2 kmh 29.85 in1010.8 mb 0.00 in0.0 mm 0.00 in0.0 mm 0.00 in0.0 mm
09:10 PM 83.9°F28.8°C 31.2°F-0.4°C 15% Calm Calm -- 29.85 in1010.8 mb 0.00 in0.0 mm 0.00 in0.0 mm 0.00 in0.0 mm
09:15 PM 83.5°F28.6°C 30.9°F-0.6°C 15% Calm Calm -- 29.85 in1010.8 mb 0.00 in0.0 mm 0.00 in0.0 mm 0.00 in0.0 mm
09:20 PM 83.0°F28.3°C 30.5°F-0.8°C 15% Calm Calm -- 29.85 in1010.8 mb 0.00 in0.0 mm 0.00 in0.0 mm 0.00 in0.0 mm
09:25 PM 82.5°F28.1°C 30.1°F-1.1°C 15% Calm Calm 2.0 mph3.2 kmh 29.85 in1010.8 mb 0.00 in0.0 mm 0.00 in0.0 mm 0.00 in0.0 mm
09:30 PM 82.2°F27.9°C 31.5°F-0.3°C 16% Calm Calm -- 29.85 in1010.8 mb 0.00 in0.0 mm 0.00 in0.0 mm 0.00 in0.0 mm
09:35 PM 81.8°F27.7°C 31.2°F-0.4°C 16% Calm Calm -- 29.85 in1010.8 mb 0.00 in0.0 mm 0.00 in0.0 mm 0.00 in0.0 mm
09:40 PM 81.4°F27.4°C 30.8°F-0.7°C 16% Calm Calm -- 29.85 in1010.8 mb 0.00 in0.0 mm 0.00 in0.0 mm 0.00 in0.0 mm
09:45 PM 81.0°F27.2°C 30.5°F-0.8°C 16% Calm Calm -- 29.85 in1010.8 mb 0.00 in0.0 mm 0.00 in0.0 mm 0.00 in0.0 mm
09:50 PM 80.7°F27.1°C 30.3°F-0.9°C 16% 1.0 mph NW1.6 kmh NW 2.0 mph3.2 kmh 29.85 in1010.8 mb 0.00 in0.0 mm 0.00 in0.0 mm 0.00 in0.0 mm
09:55 PM 80.3°F26.8°C 30.0°F-1.1°C 16% Calm Calm 1.0 mph1.6 kmh 29.85 in1010.8 mb 0.00 in0.0 mm 0.00 in0.0 mm 0.00 in0.0 mm
10:00 PM 79.9°F26.6°C 31.1°F-0.5°C 17% 1.0 mph NW1.6 kmh NW 2.0 mph3.2 kmh 29.85 in1010.8 mb 0.00 in0.0 mm 0.00 in0.0 mm 0.00 in0.0 mm
10:05 PM 79.7°F26.5°C 31.0°F-0.6°C 17% Calm Calm 2.0 mph3.2 kmh 29.85 in1010.8 mb 0.00 in0.0 mm 0.00 in0.0 mm 0.00 in0.0 mm
10:10 PM 79.4°F26.3°C 30.7°F-0.7°C 17% Calm Calm -- 29.85 in1010.8 mb 0.00 in0.0 mm 0.00 in0.0 mm 0.00 in0.0 mm
10:15 PM 79.2°F26.2°C 30.6°F-0.8°C 17% Calm Calm -- 29.85 in1010.8 mb 0.00 in0.0 mm 0.00 in0.0 mm 0.00 in0.0 mm
10:20 PM 78.9°F26.1°C 30.3°F-0.9°C 17% Calm Calm -- 29.85 in1010.8 mb 0.00 in0.0 mm 0.00 in0.0 mm 0.00 in0.0 mm
10:25 PM 78.6°F25.9°C 30.1°F-1.1°C 17% Calm Calm -- 29.85 in1010.8 mb 0.00 in0.0 mm 0.00 in0.0 mm 0.00 in0.0 mm
10:30 PM 78.5°F25.8°C 30.0°F-1.1°C 17% Calm Calm 2.0 mph3.2 kmh 29.85 in1010.8 mb 0.00 in0.0 mm 0.00 in0.0 mm 0.00 in0.0 mm
10:35 PM 78.1°F25.6°C 29.7°F-1.3°C 17% Calm Calm 1.0 mph1.6 kmh 29.84 in1010.5 mb 0.00 in0.0 mm 0.00 in0.0 mm 0.00 in0.0 mm
10:40 PM 77.8°F25.4°C 29.4°F-1.4°C 17% Calm Calm -- 29.84 in1010.5 mb 0.00 in0.0 mm 0.00 in0.0 mm 0.00 in0.0 mm
10:45 PM 77.6°F25.3°C 29.3°F-1.5°C 17% Calm Calm 1.0 mph1.6 kmh 29.84 in1010.5 mb 0.00 in0.0 mm 0.00 in0.0 mm 0.00 in0.0 mm
10:50 PM 77.3°F25.2°C 29.0°F-1.7°C 17% Calm Calm 2.0 mph3.2 kmh 29.84 in1010.5 mb 0.00 in0.0 mm 0.00 in0.0 mm 0.00 in0.0 mm
10:55 PM 77.1°F25.1°C 28.9°F-1.7°C 17% Calm Calm 1.0 mph1.6 kmh 29.84 in1010.5 mb 0.00 in0.0 mm 0.00 in0.0 mm 0.00 in0.0 mm
11:00 PM 76.9°F24.9°C 28.7°F-1.8°C 17% Calm Calm -- 29.84 in1010.5 mb 0.00 in0.0 mm 0.00 in0.0 mm 0.00 in0.0 mm
11:05 PM 76.7°F24.8°C 28.5°F-1.9°C 17% Calm Calm -- 29.84 in1010.5 mb 0.00 in0.0 mm 0.00 in0.0 mm 0.00 in0.0 mm
11:10 PM 76.5°F24.7°C 29.8°F-1.2°C 18% 2.0 mph NW3.2 kmh NW 2.0 mph3.2 kmh 29.84 in1010.5 mb 0.00 in0.0 mm 0.00 in0.0 mm 0.00 in0.0 mm
11:15 PM 76.3°F24.6°C 29.6°F-1.3°C 18% Calm Calm 3.0 mph4.8 kmh 29.84 in1010.5 mb 0.00 in0.0 mm 0.00 in0.0 mm 0.00 in0.0 mm
11:20 PM 76.1°F24.5°C 29.5°F-1.4°C 18% 1.0 mph NW1.6 kmh NW 2.0 mph3.2 kmh 29.84 in1010.5 mb 0.00 in0.0 mm 0.00 in0.0 mm 0.00 in0.0 mm
11:25 PM 75.9°F24.4°C 29.3°F-1.5°C 18% 2.0 mph NW3.2 kmh NW 3.0 mph4.8 kmh 29.84 in1010.5 mb 0.00 in0.0 mm 0.00 in0.0 mm 0.00 in0.0 mm
11:30 PM 75.6°F24.2°C 29.1°F-1.6°C 18% 2.0 mph NNW3.2 kmh NNW 4.0 mph6.4 kmh 29.84 in1010.5 mb 0.00 in0.0 mm 0.00 in0.0 mm 0.00 in0.0 mm
11:35 PM 75.3°F24.1°C 28.8°F-1.8°C 18% 1.0 mph N1.6 kmh N 4.0 mph6.4 kmh 29.84 in1010.5 mb 0.00 in0.0 mm 0.00 in0.0 mm 0.00 in0.0 mm
11:40 PM 75.1°F23.9°C 28.6°F-1.9°C 18% 2.0 mph N3.2 kmh N 4.0 mph6.4 kmh 29.84 in1010.5 mb 0.00 in0.0 mm 0.00 in0.0 mm 0.00 in0.0 mm
11:45 PM 75.0°F23.9°C 28.6°F-1.9°C 18% 3.0 mph N4.8 kmh N 4.0 mph6.4 kmh 29.84 in1010.5 mb 0.00 in0.0 mm 0.00 in0.0 mm 0.00 in0.0 mm
11:50 PM 74.9°F23.8°C 28.5°F-1.9°C 18% 2.0 mph N3.2 kmh N 4.0 mph6.4 kmh 29.84 in1010.5 mb 0.00 in0.0 mm 0.00 in0.0 mm 0.00 in0.0 mm
11:55 PM 74.7°F23.7°C 28.3°F-2.1°C 18% 3.0 mph N4.8 kmh N 3.0 mph4.8 kmh 29.84 in1010.5 mb 0.00 in0.0 mm 0.00 in0.0 mm 0.00 in0.0 mm